Pagrindinis puslapis
METAR-TAF:

METAR-TAF

Oro uostai :

Sionas, Šveicarija

platuma: 46-13N, ilguma: 007-20E, Aukštis: 482 m

Dabartinis oras

Ataskaita buvo paskelbta 37 minutes, ne 18:20 UTC
Vėjas 6 kt iš Vakarų/Pietvakarių, svyruoja nuo Pietų ir Vakarų
Temperatūra 17°C
Drėgmė 59%
Slėgis 1021 hPa
Matomumas 10 km arba daugiau
nėra debesų žemiau 1500 m ir nėra kamuolinių lietaus debesų

METAR: LSGS 191820Z AUTO 25006KT 190V280 CAVOK 17/09 Q1021

Laikas: 20:57 (18:57 UTC)

Prognozė

Ataskaita buvo paskelbta 4 valandos ir 32 minutes, ne 14:25 UTC
Prognozė galioja nuo 19 metu 15 UTC su 19 metu 24 UTC
Vėjas 12 kt iš Vakarų
Matomumas 10 km arba daugiau
Mažai debesys ne aukštis 5000 ft
Laikinai
nuo 19 metu 17 UTC su 19 metu 19 UTC
Vėjas 3 kt nuo kintamojo kryptimis
Tapsmas
nuo 19 metu 20 UTC su 19 metu 22 UTC
Matomumas 10 km arba daugiau
nėra debesų žemiau 1500 m ir nėra kamuolinių lietaus debesų

TAF: LSGS 191425Z 1915/1924 26012KT 9999 FEW050 TEMPO 1917/1919 VRB03KT BECMG 1920/1922 CAVOK

Orai ataskaitas ir orų prognozės (METAR, TAF).

turimą stotys yra geltonos ir raudonos taškus žemėlapyje.

Perkelti pele per norėdami pamatyti stoties vardą.

Tada spustelėkite, norėdami matyti oro stebėjimo ir prognozės.

Norėdami pakeisti žemėlapį: spustelėkite ant žalios mygtukų su juodo kryžiaus žemyn,; žalią mygtuką su brūkšneliu, jei norite nutolinti; arba žalių rodyklių gretimoms žemėlapius.


METAR-TAF: